Time;durP1;ratioP1;P1;durP2;ratioP2;P2;SDS_P1;SDS_P2;PMS_P1;PMS_P2;Temp;Humidity;BMP_temperature;BMP_pressure;BME280_temperature;BME280_humidity;BME280_pressure;Samples;Min_cycle;Max_cycle;Signal;HPM_P1;HPM_P2
2022/04/18 00:00:17;;;;;;;17.38;12.40;;;;;;;8.77;52.67;102030.31;4843696;28;121096;-94
2022/04/18 00:02:45;;;;;;;19.23;12.82;;;;;;;8.97;52.48;102074.28;4813462;28;121881;-95
2022/04/18 00:08:02;;;;;;;22.05;13.90;;;;;;;8.99;53.21;102071.91;5235162;23;121006;-95
2022/04/18 00:10:29;;;;;;;24.80;15.00;;;;;;;9.16;53.35;102101.06;4858958;28;118472;-94
2022/04/18 00:12:55;;;;;;;21.05;13.75;;;;;;;8.57;53.41;102028.13;4866231;28;120713;-94
2022/04/18 00:15:23;;;;;;;17.65;12.20;;;;;;;9.09;53.22;102110.16;4849617;28;121319;-94
2022/04/18 00:17:49;;;;;;;18.63;11.95;;;;;;;8.53;53.33;102019.16;4878002;28;118543;-94
2022/04/18 00:20:15;;;;;;;16.02;11.70;;;;;;;8.66;52.81;102046.00;4877358;28;118994;-94
2022/04/18 00:22:40;;;;;;;16.92;11.90;;;;;;;8.54;53.04;102026.19;4865623;28;120188;-94
2022/04/18 00:25:06;;;;;;;20.25;13.48;;;;;;;8.69;53.42;102045.22;4856208;28;118437;-93
2022/04/18 00:27:34;;;;;;;21.70;13.45;;;;;;;8.83;53.26;102075.19;4847337;28;118601;-93
2022/04/18 00:30:00;;;;;;;19.15;12.57;;;;;;;8.48;53.27;102016.06;4850195;28;121739;-92
2022/04/18 00:32:26;;;;;;;21.70;14.47;;;;;;;8.92;53.81;102083.69;4847202;28;120982;-93
2022/04/18 00:34:53;;;;;;;22.33;12.88;;;;;;;8.88;53.18;102083.72;4858688;28;121715;-94
2022/04/18 00:37:21;;;;;;;17.65;12.10;;;;;;;8.66;52.75;102048.75;4839146;28;118920;-93
2022/04/18 00:42:45;;;;;;;19.15;12.52;;;;;;;8.81;53.56;102074.81;5245270;23;121140;-94
2022/04/18 00:45:11;;;;;;;17.83;12.75;;;;;;;8.36;53.73;102011.88;4865103;28;118561;-94
2022/04/18 00:47:37;;;;;;;17.33;12.60;;;;;;;8.55;53.46;102043.38;4875568;28;119389;-94
2022/04/18 00:50:05;;;;;;;18.10;12.40;;;;;;;8.22;53.23;101992.81;5182195;23;121825;-94
2022/04/18 00:52:31;;;;;;;19.40;12.80;;;;;;;8.26;53.39;101999.03;4834995;28;118425;-93
2022/04/18 00:58:06;;;;;;;18.30;12.68;;;;;;;8.19;53.42;101993.63;5482523;23;120281;-95
2022/04/18 01:00:33;;;;;;;18.98;12.70;;;;;;;8.20;53.44;101998.69;4866024;28;120428;-93
2022/04/18 01:14:15;;;;;;;19.52;13.05;;;;;;;8.05;54.01;101993.72;5053126;23;120535;-94
2022/04/18 01:17:08;;;;;;;19.98;13.52;;;;;;;8.00;54.02;101992.94;4855248;28;121254;-95
2022/04/18 01:19:43;;;;;;;20.55;13.43;;;;;;;7.93;54.51;101987.53;4866856;28;119150;-93
2022/04/18 01:22:28;;;;;;;27.60;13.65;;;;;;;7.97;54.02;101991.03;4881075;28;121073;-94
2022/04/18 01:30:44;;;;;;;20.75;13.00;;;;;;;7.84;54.20;101989.94;4862005;28;120798;-93
2022/04/18 01:33:14;;;;;;;20.15;12.65;;;;;;;7.81;53.79;101979.03;4845627;28;121920;-92
2022/04/18 01:35:45;;;;;;;21.33;13.00;;;;;;;8.27;53.62;102049.78;4831160;28;118588;-94
2022/04/18 01:38:11;;;;;;;19.98;13.23;;;;;;;7.80;54.50;101975.50;4849881;28;120992;-94
2022/04/18 01:40:38;;;;;;;21.90;13.82;;;;;;;8.24;54.33;102045.13;4846299;28;119034;-93
2022/04/18 01:43:06;;;;;;;19.33;12.85;;;;;;;8.12;54.30;102021.00;4861933;28;120994;-94
2022/04/18 01:45:35;;;;;;;18.85;12.85;;;;;;;8.08;54.37;102018.28;4845942;28;120221;-93
2022/04/18 01:48:15;;;;;;;21.23;12.85;;;;;;;8.23;54.37;102036.13;4865326;28;118347;-94
2022/04/18 01:50:41;;;;;;;20.95;12.98;;;;;;;8.02;54.13;102012.47;4841967;28;120551;-92
2022/04/18 01:53:07;;;;;;;20.48;13.30;;;;;;;8.18;54.22;102046.72;4845807;28;121602;-94
2022/04/18 01:55:33;;;;;;;20.30;13.45;;;;;;;7.69;54.03;101972.06;4861645;28;118413;-94
2022/04/18 01:57:59;;;;;;;20.92;12.77;;;;;;;7.84;54.25;101994.63;4856030;28;120960;-93
2022/04/18 02:00:29;;;;;;;21.38;13.48;;;;;;;7.64;54.42;101961.56;4852088;28;121885;-95
2022/04/18 02:02:57;;;;;;;19.20;12.35;;;;;;;8.10;54.77;102040.53;4849576;28;121053;-94
2022/04/18 02:05:23;;;;;;;21.33;13.23;;;;;;;7.62;54.63;101961.19;4848407;28;121784;-93
2022/04/18 02:07:49;;;;;;;21.63;14.20;;;;;;;7.55;53.96;101955.75;4835834;28;118338;-93
2022/04/18 02:10:15;;;;;;;20.48;13.05;;;;;;;7.86;54.56;101997.75;4864511;28;120808;-94
2022/04/18 02:12:42;;;;;;;21.83;13.52;;;;;;;7.80;54.57;101999.31;4879165;28;120306;-93
2022/04/18 02:18:11;;;;;;;21.55;12.95;;;;;;;7.46;54.49;101955.41;4821822;28;122109;-95
2022/04/18 02:23:35;;;;;;;20.25;12.35;;;;;;;7.41;54.77;101944.91;5765395;23;121267;-95
2022/04/18 02:26:02;;;;;;;22.35;13.63;;;;;;;7.67;54.82;101986.13;4845109;28;121722;-93
2022/04/18 02:34:26;;;;;;;22.33;14.50;;;;;;;7.45;53.95;101956.59;4824751;28;121621;-92
2022/04/18 02:36:54;;;;;;;21.80;13.93;;;;;;;7.32;54.89;101943.38;4826850;28;118389;-92
2022/04/18 02:39:22;;;;;;;20.92;13.65;;;;;;;7.46;54.68;101960.88;4796319;28;121028;-92
2022/04/18 02:41:49;;;;;;;23.58;14.40;;;;;;;7.57;55.25;101983.44;4826235;28;121657;-93
2022/04/18 02:44:15;;;;;;;21.65;14.15;;;;;;;7.24;54.37;101927.44;4811365;28;118311;-92
2022/04/18 02:46:44;;;;;;;21.10;13.50;;;;;;;7.30;54.36;101934.03;4823958;28;119660;-93
2022/04/18 02:49:12;;;;;;;20.25;13.85;;;;;;;7.49;54.70;101965.53;4836180;28;118910;-92
2022/04/18 02:51:38;;;;;;;20.30;13.13;;;;;;;7.76;55.10;102007.53;4826834;28;121337;-92
2022/04/18 02:54:08;;;;;;;21.13;13.50;;;;;;;7.49;54.96;101966.31;4826041;28;121588;-93
2022/04/18 02:56:35;;;;;;;22.38;13.82;;;;;;;7.59;54.56;101978.38;4826585;28;118484;-92
2022/04/18 02:59:01;;;;;;;21.70;13.57;;;;;;;7.30;54.45;101934.81;4826271;28;119495;-92
2022/04/18 03:01:27;;;;;;;23.80;14.25;;;;;;;7.24;54.60;101922.75;4809189;28;121566;-92
2022/04/18 03:03:55;;;;;;;24.95;15.13;;;;;;;7.59;54.59;101972.91;4845210;28;118415;-92
2022/04/18 03:06:21;;;;;;;22.02;14.25;;;;;;;7.56;54.73;101969.00;4829547;28;120603;-92
2022/04/18 03:08:50;;;;;;;20.23;13.25;;;;;;;7.73;54.14;102000.13;4828847;28;121602;-92
2022/04/18 03:11:17;;;;;;;20.45;13.45;;;;;;;7.63;54.52;101990.06;4820299;28;118308;-92
2022/04/18 03:13:46;;;;;;;22.13;13.85;;;;;;;7.49;54.68;101968.28;4795358;28;121292;-92
2022/04/18 03:16:30;;;;;;;21.08;13.80;;;;;;;7.44;54.82;101965.97;4820767;28;118403;-92
2022/04/18 03:18:56;;;;;;;21.17;13.68;;;;;;;7.45;54.79;101967.53;4823194;28;119260;-92
2022/04/18 03:21:23;;;;;;;22.13;13.60;;;;;;;7.30;54.48;101940.28;4810309;28;121733;-92
2022/04/18 03:23:52;;;;;;;21.63;13.07;;;;;;;7.29;54.46;101940.66;4796011;28;118405;-91
2022/04/18 03:26:53;;;;;;;20.02;12.80;;;;;;;7.27;54.77;101935.59;4815228;28;119485;-92
2022/04/18 03:29:24;;;;;;;21.55;13.02;;;;;;;7.55;55.44;101972.13;4825743;28;121534;-91
2022/04/18 03:31:50;;;;;;;20.95;12.88;;;;;;;6.95;55.45;101888.59;4814151;28;118492;-92
2022/04/18 03:34:25;;;;;;;21.45;13.25;;;;;;;7.25;55.71;101942.63;4825404;28;120342;-92
2022/04/18 03:39:52;;;;;;;20.40;12.68;;;;;;;6.99;54.89;101903.00;4825323;28;121005;-94
2022/04/18 03:42:29;;;;;;;20.00;12.77;;;;;;;7.41;55.29;101962.06;4825516;28;121860;-91
2022/04/18 03:45:05;;;;;;;20.30;13.05;;;;;;;7.43;54.95;101975.34;4810016;28;118485;-93
2022/04/18 03:47:33;;;;;;;21.85;13.52;;;;;;;6.95;54.58;101903.00;4810418;28;121248;-94
2022/04/18 03:50:03;;;;;;;19.73;12.88;;;;;;;7.26;54.91;101950.44;4809667;28;121332;-93
2022/04/18 03:52:36;;;;;;;24.75;14.20;;;;;;;7.08;55.06;101927.88;4814111;28;118344;-93
2022/04/18 03:55:03;;;;;;;21.33;12.88;;;;;;;6.88;55.40;101896.81;4839862;28;118980;-91
2022/04/18 03:57:34;;;;;;;20.48;12.60;;;;;;;6.91;54.56;101901.47;4810418;28;118912;-94
2022/04/18 04:00:06;;;;;;;19.85;12.65;;;;;;;7.30;55.17;101964.06;4806619;29;120974;-90
2022/04/18 04:02:43;;;;;;;20.77;12.70;;;;;;;7.01;54.77;101920.50;4820569;28;121766;-93
2022/04/18 04:05:12;;;;;;;19.38;12.45;;;;;;;6.90;54.79;101903.41;4809909;28;118946;-93
2022/04/18 04:07:41;;;;;;;20.30;12.88;;;;;;;7.08;55.15;101922.44;4825598;28;119452;-92
2022/04/18 04:10:20;;;;;;;22.00;13.07;;;;;;;7.26;55.48;101955.13;4824846;28;121709;-94
2022/04/18 04:12:46;;;;;;;21.10;12.98;;;;;;;7.10;55.59;101928.28;4825342;28;118408;-93
2022/04/18 04:15:41;;;;;;;19.55;12.50;;;;;;;6.75;56.14;101871.91;4828710;28;119456;-93
2022/04/18 04:18:18;;;;;;;21.27;13.02;;;;;;;6.78;55.04;101877.34;4825721;28;118351;-92
2022/04/18 04:20:46;;;;;;;22.50;13.18;;;;;;;7.06;55.68;101930.22;4825589;28;119608;-93
2022/04/18 04:23:13;;;;;;;21.25;13.43;;;;;;;7.02;55.43;101913.88;4797785;28;121577;-91
2022/04/18 04:25:55;;;;;;;21.98;13.50;;;;;;;6.68;55.10;101867.25;4802111;28;118322;-94
2022/04/18 04:28:28;;;;;;;23.50;14.52;;;;;;;6.74;54.37;101879.31;4825314;28;120427;-92
2022/04/18 04:30:55;;;;;;;23.30;13.65;;;;;;;6.81;54.15;101889.41;4810106;28;121913;-94
2022/04/18 04:33:21;;;;;;;21.23;14.38;;;;;;;6.74;54.63;101878.53;4799675;28;118469;-92
2022/04/18 04:38:46;;;;;;;23.10;14.20;;;;;;;7.24;55.03;101949.28;5353207;23;121346;-93
2022/04/18 04:41:23;;;;;;;21.58;13.80;;;;;;;6.83;55.24;101883.56;4865324;28;121473;-93
2022/04/18 04:43:55;;;;;;;23.60;14.32;;;;;;;7.12;55.73;101917.75;4881216;28;120944;-92
2022/04/18 04:46:30;;;;;;;22.90;14.43;;;;;;;6.88;55.37;101877.72;4869756;28;118366;-92
2022/04/18 04:49:07;;;;;;;22.45;14.23;;;;;;;7.23;55.37;101923.94;4872187;23;119581;-91
2022/04/18 04:51:33;;;;;;;23.05;15.13;;;;;;;7.39;54.91;101951.56;4848676;28;121792;-92
2022/04/18 04:54:00;;;;;;;24.42;15.93;;;;;;;6.96;55.00;101873.78;4850012;28;118536;-92
2022/04/18 04:56:31;;;;;;;24.27;15.85;;;;;;;7.00;54.64;101860.88;4881354;28;120474;-92
2022/04/18 04:59:03;;;;;;;23.92;15.43;;;;;;;7.25;54.61;101905.22;4858968;28;121482;-92
2022/04/18 05:01:29;;;;;;;22.50;14.25;;;;;;;7.25;55.34;101890.78;4835180;28;120244;-92
2022/04/18 05:04:02;;;;;;;24.15;14.68;;;;;;;7.12;55.67;101857.72;4831614;28;121860;-92
2022/04/18 05:06:29;;;;;;;23.73;14.93;;;;;;;7.16;55.56;101858.47;4837701;28;118505;-93
2022/04/18 05:08:57;;;;;;;23.52;13.95;;;;;;;7.73;55.95;101934.59;4846347;28;120609;-92
2022/04/18 05:11:25;;;;;;;23.40;13.63;;;;;;;7.78;55.64;101939.63;4846163;28;121894;-92
2022/04/18 05:13:53;;;;;;;23.13;14.82;;;;;;;7.61;56.24;101894.09;4831205;28;118562;-92
2022/04/18 05:16:42;;;;;;;21.17;14.38;;;;;;;7.54;55.53;101867.59;4853366;28;120955;-93
2022/04/18 05:19:25;;;;;;;24.02;14.85;;;;;;;8.02;55.39;101935.94;4864071;28;121591;-92
2022/04/18 05:22:05;;;;;;;21.77;14.10;;;;;;;7.73;55.69;101862.81;4856223;28;118390;-93
2022/04/18 05:24:34;;;;;;;22.67;14.68;;;;;;;7.89;56.66;101882.97;4849076;28;121118;-92
2022/04/18 05:27:01;;;;;;;20.80;13.70;;;;;;;7.85;56.52;101865.84;4854614;28;118462;-93
2022/04/18 05:29:28;;;;;;;22.33;14.40;;;;;;;8.19;56.44;101901.47;4845994;28;120934;-95
2022/04/18 05:31:54;;;;;;;20.27;12.32;;;;;;;8.03;55.24;101857.47;4845817;28;121835;-93
2022/04/18 05:34:20;;;;;;;18.85;12.70;;;;;;;8.51;55.69;101911.34;4851089;28;118543;-93
2022/04/18 05:36:52;;;;;;;21.67;12.73;;;;;;;8.71;55.55;101923.25;4854501;28;118663;-91
2022/04/18 05:39:38;;;;;;;18.33;12.27;;;;;;;8.43;54.18;101855.94;4860276;28;119827;-93
2022/04/18 05:42:06;;;;;;;22.95;12.30;;;;;;;8.68;54.38;101893.97;4835523;28;118526;-92
2022/04/18 05:44:33;;;;;;;19.10;11.82;;;;;;;8.73;55.12;101887.28;4851162;28;121069;-91
2022/04/18 05:47:00;;;;;;;20.02;10.82;;;;;;;8.79;55.51;101878.22;4860754;28;119891;-94
2022/04/18 05:49:28;;;;;;;18.08;11.02;;;;;;;9.20;54.55;101913.69;4835919;28;120823;-94
2022/04/18 05:51:55;;;;;;;17.65;10.40;;;;;;;8.87;54.25;101855.06;4852412;28;122765;-95
2022/04/18 05:54:24;;;;;;;17.98;10.68;;;;;;;9.35;53.86;101914.28;4890310;28;120051;-95
2022/04/18 05:56:55;;;;;;;17.20;9.52;;;;;;;9.57;53.62;101928.47;4853367;28;119441;-94
2022/04/18 05:59:36;;;;;;;22.55;10.57;;;;;;;9.50;52.96;101904.69;4851439;28;120245;-95
2022/04/18 06:02:08;;;;;;;17.95;10.27;;;;;;;9.81;52.80;101927.31;4841106;28;118791;-94
2022/04/18 06:04:36;;;;;;;16.35;9.27;;;;;;;9.76;51.62;101897.66;4843563;28;120869;-95
2022/04/18 06:07:16;;;;;;;15.63;9.30;;;;;;;10.10;52.63;101937.84;4871683;28;120284;-94
2022/04/18 06:09:47;;;;;;;15.82;9.23;;;;;;;10.16;53.33;101922.47;4863525;28;121113;-94
2022/04/18 06:12:13;;;;;;;16.77;9.63;;;;;;;10.16;54.38;101906.00;4855129;28;121722;-95
2022/04/18 06:14:48;;;;;;;16.05;9.60;;;;;;;10.48;54.65;101940.38;4847949;28;118494;-95
2022/04/18 06:17:19;;;;;;;14.75;9.20;;;;;;;10.45;54.09;101903.59;4848705;28;120946;-96
2022/04/18 06:19:45;;;;;;;14.98;8.88;;;;;;;10.72;54.83;101928.19;4848920;28;122222;-94
2022/04/18 06:22:12;;;;;;;15.77;9.75;;;;;;;10.55;54.83;101882.63;4856397;28;118448;-95
2022/04/18 06:24:38;;;;;;;15.35;9.38;;;;;;;10.94;55.46;101929.34;4849957;28;121166;-95
2022/04/18 06:27:13;;;;;;;16.50;10.23;;;;;;;11.04;55.27;101920.09;4866445;28;122069;-95
2022/04/18 06:29:39;;;;;;;13.55;9.30;;;;;;;11.15;54.34;101928.13;4870488;28;118460;-95
2022/04/18 06:32:09;;;;;;;15.45;10.05;;;;;;;11.27;55.03;101926.69;4834925;28;122288;-94
2022/04/18 06:34:36;;;;;;;16.27;9.80;;;;;;;11.38;54.37;101921.75;4862960;28;118420;-95
2022/04/18 06:37:12;;;;;;;16.40;9.82;;;;;;;11.03;54.77;101858.13;4849483;28;119425;-95
2022/04/18 06:39:43;;;;;;;16.67;10.40;;;;;;;11.18;54.83;101864.13;4847490;28;121659;-94
2022/04/18 06:42:13;;;;;;;16.55;9.98;;;;;;;11.57;53.51;101896.19;4875703;28;118468;-95
2022/04/18 06:44:46;;;;;;;14.23;9.40;;;;;;;11.40;51.12;101858.16;4850777;28;120974;-96
2022/04/18 06:47:13;;;;;;;16.48;10.10;;;;;;;11.97;53.23;101935.34;4881651;28;120309;-96
2022/04/18 06:50:14;;;;;;;14.63;9.82;;;;;;;12.06;52.86;101922.97;4831770;28;118517;-96
2022/04/18 06:52:41;;;;;;;18.50;11.10;;;;;;;11.96;53.44;101892.56;4869902;28;120789;-94
2022/04/18 06:55:26;;;;;;;18.50;9.93;;;;;;;12.18;52.88;101906.56;4870927;28;118564;-95
2022/04/18 06:57:52;;;;;;;16.05;9.63;;;;;;;12.07;52.97;101886.03;4866184;28;118588;-96
2022/04/18 07:00:18;;;;;;;13.68;9.70;;;;;;;12.54;51.62;101936.69;4846284;28;121867;-95
2022/04/18 07:02:45;;;;;;;15.85;10.88;;;;;;;12.34;50.89;101891.25;4850077;28;118785;-95
2022/04/18 07:05:11;;;;;;;14.82;10.38;;;;;;;12.69;52.77;101937.06;4832817;28;120974;-95
2022/04/18 07:07:38;;;;;;;15.63;11.00;;;;;;;12.64;52.25;101914.81;4862547;28;120565;-95
2022/04/18 07:10:04;;;;;;;15.93;11.25;;;;;;;12.70;52.35;101913.84;4850009;28;118438;-95
2022/04/18 07:12:31;;;;;;;17.58;11.15;;;;;;;12.76;51.64;101914.06;4866885;28;118442;-94
2022/04/18 07:14:59;;;;;;;16.15;10.63;;;;;;;12.52;52.08;101869.50;4852521;28;121725;-96
2022/04/18 07:17:30;;;;;;;17.10;10.70;;;;;;;13.04;50.75;101932.56;4832475;28;120929;-95
2022/04/18 07:19:59;;;;;;;;;;;;;;;13.08;51.53;101927.75;4832536;28;121634;-96
2022/04/18 07:22:27;;;;;;;15.73;11.10;;;;;;;12.86;51.79;101891.75;4848420;28;118493;-96
2022/04/18 07:24:58;;;;;;;16.65;11.05;;;;;;;12.84;51.98;101877.66;4832870;29;121070;-94
2022/04/18 07:27:32;;;;;;;18.48;11.90;;;;;;;13.25;52.82;101920.19;4831763;28;121742;-96
2022/04/18 07:30:03;;;;;;;17.55;11.70;;;;;;;13.05;53.26;101890.06;4844056;28;118354;-94
2022/04/18 07:32:30;;;;;;;17.85;11.50;;;;;;;12.91;51.84;101855.41;4837787;28;121062;-96
2022/04/18 07:35:02;;;;;;;16.02;11.43;;;;;;;13.43;51.01;101925.94;4857781;28;121997;-96
2022/04/18 07:37:35;;;;;;;17.65;11.65;;;;;;;13.12;50.95;101867.78;4869459;28;118587;-95
2022/04/18 07:40:02;;;;;;;18.00;11.82;;;;;;;13.11;52.47;101862.72;4870460;28;119368;-95
2022/04/18 07:42:29;;;;;;;18.52;11.60;;;;;;;13.59;52.35;101899.50;4846130;28;118563;-95
2022/04/18 07:44:58;;;;;;;17.88;11.85;;;;;;;13.62;51.49;101901.34;4833815;28;122718;-95
2022/04/18 07:47:25;;;;;;;18.30;11.82;;;;;;;13.48;51.31;101855.69;4836926;28;120244;-95
2022/04/18 07:49:51;;;;;;;15.98;11.73;;;;;;;14.09;50.82;101921.50;4880318;28;118594;-95
2022/04/18 07:52:17;;;;;;;16.83;11.00;;;;;;;13.86;51.87;101863.94;4847318;28;119418;-95
2022/04/18 07:55:21;;;;;;;20.00;11.65;;;;;;;14.48;49.86;101924.97;4846999;28;121913;-96
2022/04/18 07:57:50;;;;;;;17.90;11.43;;;;;;;14.39;49.57;101886.19;4848416;28;118925;-95
2022/04/18 08:00:16;;;;;;;17.92;11.10;;;;;;;14.69;49.23;101898.59;4840066;28;121022;-96
2022/04/18 08:02:49;;;;;;;18.60;11.93;;;;;;;14.57;48.26;101847.72;4834671;28;118590;-94
2022/04/18 08:05:46;;;;;;;17.48;11.15;;;;;;;15.24;48.28;101908.00;4864297;28;120986;-95
2022/04/18 08:08:15;;;;;;;19.77;11.75;;;;;;;15.39;47.55;101907.44;4841288;28;121800;-96
2022/04/18 08:10:40;;;;;;;18.60;11.68;;;;;;;15.36;46.99;101896.06;4864671;28;118529;-95
2022/04/18 08:13:09;;;;;;;19.77;11.88;;;;;;;15.47;47.15;101889.34;4860095;28;121002;-94
2022/04/18 08:15:56;;;;;;;20.23;11.38;;;;;;;15.57;47.17;101885.38;4865929;28;121776;-95
2022/04/18 08:18:36;;;;;;;20.42;11.98;;;;;;;15.48;44.83;101854.94;4858492;28;118495;-95
2022/04/18 08:21:03;;;;;;;19.00;11.70;;;;;;;15.52;45.62;101850.03;4885311;28;120911;-94
2022/04/18 08:23:31;;;;;;;19.70;12.02;;;;;;;15.83;45.55;101892.25;4850128;28;118540;-94
2022/04/18 08:26:17;;;;;;;20.08;11.85;;;;;;;15.96;44.71;101887.38;4862116;28;120920;-94
2022/04/18 08:28:47;;;;;;;19.20;10.80;;;;;;;15.98;44.14;101873.06;4848444;28;121897;-95
2022/04/18 08:31:14;;;;;;;20.23;11.80;;;;;;;16.05;44.64;101864.47;4862613;28;118691;-95
2022/04/18 08:33:59;;;;;;;20.83;12.15;;;;;;;16.00;44.67;101837.41;4835668;28;121004;-96
2022/04/18 08:36:25;;;;;;;16.20;10.70;;;;;;;16.54;44.24;101905.09;4864675;28;122063;-94
2022/04/18 08:38:52;;;;;;;18.30;11.40;;;;;;;16.60;43.95;101903.28;4862382;28;119691;-94
2022/04/18 08:41:37;;;;;;;;;;;;;;;16.61;44.21;101895.72;4890438;28;121220;-96
2022/04/18 08:44:05;;;;;;;18.08;10.80;;;;;;;16.62;44.23;101894.50;4878480;28;120832;-96
2022/04/18 08:46:32;;;;;;;17.23;10.52;;;;;;;16.56;44.88;101881.28;4848192;28;121056;-95
2022/04/18 08:54:28;;;;;;;17.70;10.90;;;;;;;16.83;43.29;101915.75;4846178;28;120748;-96
2022/04/18 08:56:57;;;;;;;18.67;11.15;;;;;;;16.41;43.52;101841.56;4846288;28;122145;-95
2022/04/18 08:59:23;;;;;;;17.95;11.30;;;;;;;16.86;44.55;101906.50;4854073;28;118444;-96
2022/04/18 09:01:50;;;;;;;18.38;10.95;;;;;;;16.89;42.49;101897.25;4846202;28;119700;-95
2022/04/18 09:04:57;;;;;;;20.73;11.70;;;;;;;16.82;42.63;101880.97;4857197;28;120598;-96
2022/04/18 09:07:27;;;;;;;16.67;11.05;;;;;;;16.68;43.45;101874.03;4850658;28;118399;-96
2022/04/18 09:09:56;;;;;;;15.10;10.30;;;;;;;16.93;42.34;101892.31;4845896;28;123074;-96
2022/04/18 09:12:27;;;;;;;18.25;10.80;;;;;;;16.93;42.41;101891.53;4844846;28;120312;-95
2022/04/18 09:15:30;;;;;;;14.88;10.18;;;;;;;16.55;42.92;101832.63;4846043;28;120908;-95
2022/04/18 09:18:12;;;;;;;16.27;11.27;;;;;;;16.79;43.04;101868.78;4845557;28;121681;-96
2022/04/18 09:20:55;;;;;;;17.30;11.15;;;;;;;17.02;43.17;101889.50;4861247;28;118336;-95
2022/04/18 09:23:35;;;;;;;16.17;10.80;;;;;;;16.64;43.08;101817.22;4860306;28;121010;-96
2022/04/18 09:26:20;;;;;;;12.50;8.35;;;;;;;16.78;40.17;101847.06;4866550;28;118937;-96
2022/04/18 09:28:46;;;;;;;12.63;8.55;;;;;;;17.05;40.51;101877.50;4845779;28;118569;-94
2022/04/18 09:31:19;;;;;;;13.10;8.82;;;;;;;17.10;39.87;101882.41;4860645;28;121458;-96
2022/04/18 09:33:54;;;;;;;16.33;10.00;;;;;;;16.67;40.97;101808.00;4861668;28;118624;-95
2022/04/18 09:36:21;;;;;;;13.85;9.18;;;;;;;16.96;39.90;101840.72;4830423;28;121171;-96
2022/04/18 09:38:56;;;;;;;12.50;6.75;;;;;;;16.89;38.42;101830.75;4861094;28;120689;-96
2022/04/18 09:41:47;;;;;;;11.68;7.22;;;;;;;17.17;36.96;101868.22;4862093;28;118421;-95
2022/04/18 09:44:37;;;;;;;10.63;7.43;;;;;;;16.79;38.76;101801.50;4859423;28;119470;-96
2022/04/18 09:47:08;;;;;;;11.13;7.45;;;;;;;17.00;38.74;101833.00;4845063;28;120290;-95
2022/04/18 09:49:40;;;;;;;10.93;6.63;;;;;;;17.17;37.52;101857.13;4834947;28;118528;-96
2022/04/18 09:52:16;;;;;;;9.07;5.35;;;;;;;17.03;35.20;101835.59;4846761;28;119699;-96
2022/04/18 09:54:58;;;;;;;8.70;5.60;;;;;;;17.26;36.00;101858.31;4849253;28;121825;-95
2022/04/18 09:57:26;;;;;;;13.35;7.30;;;;;;;16.94;35.53;101824.56;4854007;28;120796;-96
2022/04/18 09:59:54;;;;;;;11.70;7.13;;;;;;;17.17;37.01;101859.91;4864311;28;121973;-95
2022/04/18 10:02:20;;;;;;;8.23;6.20;;;;;;;17.10;36.41;101843.63;4880056;28;118559;-95
2022/04/18 10:04:47;;;;;;;13.60;7.85;;;;;;;17.16;37.04;101858.38;4873233;28;120336;-96
2022/04/18 10:07:13;;;;;;;12.73;8.25;;;;;;;17.05;36.06;101833.16;4848392;28;121914;-96
2022/04/18 10:09:43;;;;;;;9.95;6.55;;;;;;;17.09;35.39;101847.63;4864501;28;118609;-96
2022/04/18 10:12:12;;;;;;;11.13;6.88;;;;;;;17.01;36.30;101845.63;4849105;28;120847;-96
2022/04/18 10:14:42;;;;;;;15.77;7.20;;;;;;;17.09;36.32;101855.94;4845182;28;121853;-96
2022/04/18 10:17:09;;;;;;;10.88;7.05;;;;;;;17.07;37.95;101849.31;4839445;28;118436;-96
2022/04/18 10:19:53;;;;;;;11.77;7.40;;;;;;;17.06;36.94;101856.88;4848495;28;121798;-96
2022/04/18 10:22:49;;;;;;;7.88;5.88;;;;;;;16.63;36.52;101794.31;4861052;28;118389;-95
2022/04/18 10:25:40;;;;;;;12.27;8.07;;;;;;;17.09;36.79;101849.63;4849603;28;120113;-96
2022/04/18 10:28:19;;;;;;;10.32;7.35;;;;;;;17.06;37.95;101851.34;4856938;28;121937;-95
2022/04/18 10:30:49;;;;;;;11.73;7.50;;;;;;;16.93;37.15;101827.81;4860766;28;118513;-96
2022/04/18 10:33:17;;;;;;;11.07;7.47;;;;;;;16.79;37.44;101801.50;4845527;28;118992;-96
2022/04/18 10:36:03;;;;;;;11.68;7.13;;;;;;;17.07;39.14;101836.22;4860419;28;120212;-94
2022/04/18 10:38:36;;;;;;;12.38;6.40;;;;;;;16.82;37.95;101795.81;4851148;28;118378;-96
2022/04/18 10:41:22;;;;;;;8.20;5.80;;;;;;;16.70;37.02;101784.91;4860629;28;122020;-96
2022/04/18 10:43:58;;;;;;;10.57;7.10;;;;;;;17.08;34.79;101839.78;4857821;28;118594;-96
2022/04/18 10:46:27;;;;;;;9.50;6.60;;;;;;;17.03;35.61;101823.75;4845190;28;120883;-95
2022/04/18 10:49:04;;;;;;;12.40;7.68;;;;;;;16.82;35.90;101795.06;4830293;28;121703;-95
2022/04/18 10:51:40;;;;;;;12.07;7.90;;;;;;;16.66;36.65;101774.00;4854134;28;118559;-95
2022/04/18 10:54:09;;;;;;;13.88;7.95;;;;;;;16.87;36.74;101805.50;4866597;28;120750;-96
2022/04/18 10:56:58;;;;;;;11.77;6.65;;;;;;;17.06;35.81;101831.94;4850421;28;121724;-96
2022/04/18 10:59:24;;;;;;;10.15;6.15;;;;;;;16.89;36.85;101803.03;4879059;28;118401;-96
2022/04/18 11:01:52;;;;;;;9.93;6.30;;;;;;;16.75;35.80;101781.50;4851555;28;120707;-95
2022/04/18 11:04:18;;;;;;;9.85;6.78;;;;;;;16.87;34.02;101797.19;4863678;28;120143;-96
2022/04/18 11:06:46;;;;;;;10.18;6.38;;;;;;;17.03;35.08;101818.22;4844553;28;121332;-96
2022/04/18 11:09:16;;;;;;;9.73;7.10;;;;;;;16.97;35.28;101801.44;4871332;28;119149;-94
2022/04/18 11:12:02;;;;;;;11.30;7.88;;;;;;;17.20;36.35;101830.47;4847239;28;119414;-96
2022/04/18 11:14:46;;;;;;;12.98;8.70;;;;;;;17.11;36.93;101806.34;4848121;28;120402;-96
2022/04/18 11:17:13;;;;;;;11.25;7.75;;;;;;;16.82;36.86;101762.56;4836629;28;122095;-96
2022/04/18 11:19:40;;;;;;;10.85;7.43;;;;;;;17.18;36.42;101816.31;4881410;28;118695;-96
2022/04/18 11:22:16;;;;;;;9.30;5.88;;;;;;;17.21;35.83;101820.16;4850765;28;120759;-96
2022/04/18 11:24:42;;;;;;;11.90;6.97;;;;;;;17.23;35.73;101812.91;4850547;28;122082;-95
2022/04/18 11:27:14;;;;;;;11.80;7.50;;;;;;;17.27;34.60;101809.94;4862094;28;119897;-96
2022/04/18 11:29:43;;;;;;;12.73;8.00;;;;;;;17.28;35.36;101805.97;4876419;28;120515;-94
2022/04/18 11:32:09;;;;;;;11.93;8.30;;;;;;;17.27;36.63;101802.41;4862827;28;118464;-96
2022/04/18 11:34:36;;;;;;;12.30;8.00;;;;;;;17.28;36.51;101812.28;4860153;28;121162;-96
2022/04/18 11:37:08;;;;;;;9.45;6.50;;;;;;;16.94;36.45;101755.28;4846501;28;121631;-95
2022/04/18 11:39:42;;;;;;;10.05;6.07;;;;;;;17.29;34.42;101801.94;4851450;28;118954;-96
2022/04/18 11:42:08;;;;;;;10.95;6.63;;;;;;;17.24;33.41;101783.16;4831770;28;120959;-96
2022/04/18 11:44:39;;;;;;;11.35;7.45;;;;;;;17.05;35.47;101743.69;4851380;28;121708;-96
2022/04/18 11:47:09;;;;;;;10.43;7.07;;;;;;;17.19;34.49;101760.38;4850748;28;119826;-94
2022/04/18 11:49:36;;;;;;;10.25;6.32;;;;;;;17.18;34.51;101758.84;4861706;28;120551;-96
2022/04/18 11:52:02;;;;;;;13.75;8.27;;;;;;;17.02;35.02;101739.81;4853590;28;119097;-96
2022/04/18 11:54:28;;;;;;;12.43;7.95;;;;;;;17.41;34.64;101787.09;4886721;28;121467;-96
2022/04/18 11:57:03;;;;;;;12.93;7.82;;;;;;;17.29;35.79;101765.91;4865481;28;121689;-96
2022/04/18 11:59:30;;;;;;;12.32;8.18;;;;;;;17.18;35.52;101745.00;4849992;28;120477;-96
2022/04/18 12:07:30;;;;;;;13.48;8.88;;;;;;;17.45;34.35;101769.00;4862329;28;118682;-96
2022/04/18 12:09:55;;;;;;;13.45;7.85;;;;;;;17.15;35.35;101723.00;4865484;28;121144;-96
2022/04/18 12:12:28;;;;;;;11.82;7.47;;;;;;;17.53;33.67;101777.00;4857905;28;118531;-96
2022/04/18 12:14:54;;;;;;;12.10;7.35;;;;;;;17.54;34.37;101773.00;4831147;28;120929;-96
2022/04/18 12:17:20;;;;;;;12.23;7.72;;;;;;;17.52;34.42;101769.94;4846785;28;121801;-95
2022/04/18 12:19:52;;;;;;;13.00;8.30;;;;;;;17.22;35.38;101719.84;4860524;28;118738;-96
2022/04/18 12:22:23;;;;;;;13.45;8.75;;;;;;;17.23;35.76;101709.53;4868105;28;119346;-94